Time;durP1;ratioP1;P1;durP2;ratioP2;P2;SDS_P1;SDS_P2;PMS_P1;PMS_P2;Temp;Humidity;BMP_temperature;BMP_pressure;BME280_temperature;BME280_humidity;BME280_pressure;Samples;Min_cycle;Max_cycle;Signal;HPM_P1;HPM_P2
2023/12/19 00:00:29;;;;;;;19.50;17.50;;;3.10;99.90;;;;;;5114524;28;20410;-71
2023/12/19 00:02:56;;;;;;;18.77;16.97;;;3.00;99.90;;;;;;5095949;28;20682;-72
2023/12/19 00:05:22;;;;;;;17.83;16.23;;;3.00;99.90;;;;;;5114946;28;20521;-72
2023/12/19 00:07:48;;;;;;;15.53;13.93;;;3.10;99.90;;;;;;5114235;28;20406;-72
2023/12/19 00:10:14;;;;;;;18.37;16.00;;;3.10;99.90;;;;;;5114308;28;20469;-72
2023/12/19 00:12:39;;;;;;;14.63;13.13;;;3.10;99.90;;;;;;5114239;28;20933;-72
2023/12/19 00:15:06;;;;;;;12.67;11.33;;;3.10;99.90;;;;;;5114042;28;20169;-72
2023/12/19 00:17:31;;;;;;;13.40;12.10;;;3.00;99.90;;;;;;5114053;28;20264;-71
2023/12/19 00:19:57;;;;;;;16.73;13.17;;;3.10;99.90;;;;;;5114075;28;20843;-72
2023/12/19 00:22:23;;;;;;;14.53;12.87;;;3.10;99.90;;;;;;5113612;28;20242;-72
2023/12/19 00:24:49;;;;;;;14.47;12.33;;;3.00;99.90;;;;;;5113621;28;20658;-72
2023/12/19 00:27:15;;;;;;;13.93;12.40;;;3.00;99.90;;;;;;5114101;28;20415;-72
2023/12/19 00:29:40;;;;;;;14.00;11.77;;;3.10;99.90;;;;;;5113867;28;20605;-72
2023/12/19 00:32:06;;;;;;;13.83;12.43;;;3.20;99.90;;;;;;5114075;28;20427;-72
2023/12/19 00:34:32;;;;;;;13.77;12.30;;;3.10;99.90;;;;;;5114031;28;20164;-72
2023/12/19 00:36:58;;;;;;;13.60;11.17;;;3.00;99.90;;;;;;5114239;28;20414;-72
2023/12/19 00:39:23;;;;;;;12.70;10.90;;;3.00;99.90;;;;;;5114002;28;20255;-72
2023/12/19 00:41:49;;;;;;;12.47;11.27;;;3.00;99.90;;;;;;5113773;28;20638;-72
2023/12/19 00:44:14;;;;;;;11.87;10.67;;;3.00;99.90;;;;;;5113560;28;20192;-73
2023/12/19 00:46:43;;;;;;;10.03;9.03;;;3.00;99.90;;;;;;5113769;28;20164;-71
2023/12/19 00:49:09;;;;;;;10.07;8.87;;;2.90;99.90;;;;;;5113962;28;20188;-71
2023/12/19 00:51:35;;;;;;;12.33;11.13;;;3.00;99.90;;;;;;5113937;28;20410;-71
2023/12/19 00:54:01;;;;;;;9.90;8.87;;;3.00;99.90;;;;;;5113530;28;20426;-71
2023/12/19 00:56:26;;;;;;;11.20;10.10;;;3.10;99.90;;;;;;5113764;28;20173;-72
2023/12/19 00:58:52;;;;;;;10.50;9.50;;;3.20;99.90;;;;;;5114223;28;20526;-71
2023/12/19 01:01:22;;;;;;;10.97;9.97;;;3.10;99.90;;;;;;5113692;28;20204;-71
2023/12/19 01:03:47;;;;;;;8.73;7.83;;;3.10;99.90;;;;;;5113817;28;20754;-70
2023/12/19 01:06:13;;;;;;;12.00;9.27;;;3.20;99.90;;;;;;5113772;28;20402;-71
2023/12/19 01:08:39;;;;;;;11.50;9.90;;;3.20;99.90;;;;;;5113514;28;20516;-71
2023/12/19 01:11:07;;;;;;;9.53;8.53;;;3.30;99.90;;;;;;5113403;28;20200;-71
2023/12/19 01:13:32;;;;;;;9.80;8.80;;;3.30;99.90;;;;;;5113822;28;20196;-71
2023/12/19 01:15:58;;;;;;;9.40;8.50;;;3.40;99.90;;;;;;5113659;28;20402;-71
2023/12/19 01:18:23;;;;;;;9.17;8.27;;;3.30;99.90;;;;;;5113484;28;20165;-71
2023/12/19 01:20:50;;;;;;;9.83;8.83;;;3.40;99.90;;;;;;5097250;28;20318;-71
2023/12/19 01:23:16;;;;;;;7.50;6.80;;;3.40;99.90;;;;;;5111861;28;20591;-71
2023/12/19 01:25:42;;;;;;;8.27;7.47;;;3.40;99.90;;;;;;5113420;28;20832;-71
2023/12/19 01:28:07;;;;;;;8.30;7.50;;;3.50;99.90;;;;;;5112189;28;20434;-71
2023/12/19 01:30:33;;;;;;;7.97;7.27;;;3.40;99.90;;;;;;5113378;28;20221;-72
2023/12/19 01:32:59;;;;;;;8.00;7.13;;;3.50;99.90;;;;;;5113337;28;20192;-71
2023/12/19 01:35:24;;;;;;;8.50;7.60;;;3.50;99.90;;;;;;5095068;28;20176;-72
2023/12/19 01:37:50;;;;;;;8.90;8.00;;;3.40;99.90;;;;;;5113110;28;20169;-71
2023/12/19 01:40:16;;;;;;;9.23;8.33;;;3.40;99.90;;;;;;5113134;28;20194;-70
2023/12/19 01:42:41;;;;;;;9.73;8.33;;;3.40;99.90;;;;;;5113543;28;20237;-71
2023/12/19 01:45:12;;;;;;;11.97;8.30;;;3.40;99.90;;;;;;5113302;28;20161;-70
2023/12/19 01:47:41;;;;;;;8.57;7.20;;;3.40;99.90;;;;;;5113080;28;20149;-71
2023/12/19 01:50:08;;;;;;;9.67;8.67;;;3.30;99.90;;;;;;5103602;28;20779;-71
2023/12/19 01:52:38;;;;;;;7.37;6.50;;;3.40;99.90;;;;;;5094906;28;20438;-71
2023/12/19 01:55:05;;;;;;;8.30;7.43;;;3.30;99.90;;;;;;5094397;28;20924;-71
2023/12/19 01:57:31;;;;;;;9.47;8.57;;;3.20;99.90;;;;;;5114629;28;20410;-71
2023/12/19 01:59:56;;;;;;;10.47;8.60;;;3.00;99.90;;;;;;5116597;28;20425;-71
2023/12/19 02:02:22;;;;;;;12.20;10.63;;;2.80;99.90;;;;;;5115191;28;20430;-71
2023/12/19 02:04:48;;;;;;;12.23;10.40;;;2.80;99.90;;;;;;5116675;28;20164;-70
2023/12/19 02:07:14;;;;;;;10.37;9.37;;;2.90;99.90;;;;;;5116719;28;20159;-71
2023/12/19 02:09:40;;;;;;;9.60;8.60;;;2.90;99.90;;;;;;5116591;28;20477;-71
2023/12/19 02:12:06;;;;;;;10.97;9.87;;;2.90;99.90;;;;;;5116521;28;20250;-71
2023/12/19 02:14:31;;;;;;;13.47;10.27;;;2.80;99.90;;;;;;5116423;28;20164;-71
2023/12/19 02:16:57;;;;;;;12.10;10.13;;;2.90;99.90;;;;;;5116567;28;20410;-70
2023/12/19 02:19:22;;;;;;;9.73;8.73;;;2.90;99.90;;;;;;5110885;28;20535;-70
2023/12/19 02:21:48;;;;;;;11.87;10.67;;;2.80;99.90;;;;;;5095877;28;20169;-73
2023/12/19 02:24:14;;;;;;;8.77;7.90;;;2.90;99.90;;;;;;5095824;28;20574;-74
2023/12/19 02:26:40;;;;;;;11.40;8.47;;;2.80;99.90;;;;;;5095727;28;20172;-74
2023/12/19 02:29:06;;;;;;;10.97;9.27;;;2.90;99.90;;;;;;5098392;28;20392;-73
2023/12/19 02:31:31;;;;;;;11.63;9.67;;;2.80;99.90;;;;;;5114796;28;20399;-74
2023/12/19 02:33:57;;;;;;;11.40;9.90;;;2.70;99.90;;;;;;5115756;28;20184;-74
2023/12/19 02:36:22;;;;;;;11.20;9.57;;;2.60;99.90;;;;;;5115905;28;20602;-74
2023/12/19 02:38:48;;;;;;;11.37;9.07;;;2.60;99.90;;;;;;5115833;28;20196;-74
2023/12/19 02:41:14;;;;;;;11.50;10.13;;;2.60;99.90;;;;;;5115833;28;20249;-74
2023/12/19 02:43:39;;;;;;;11.13;10.03;;;2.60;99.90;;;;;;5115366;28;20224;-74
2023/12/19 02:46:06;;;;;;;10.80;9.70;;;2.60;99.90;;;;;;5115660;28;20164;-74
2023/12/19 02:48:32;;;;;;;11.83;9.63;;;2.60;99.90;;;;;;5115764;28;20157;-74
2023/12/19 02:50:58;;;;;;;10.30;8.90;;;2.50;99.90;;;;;;5115641;28;20443;-74
2023/12/19 02:53:24;;;;;;;13.53;8.03;;;2.50;99.90;;;;;;5115649;28;20422;-74
2023/12/19 02:55:49;;;;;;;9.00;7.93;;;2.50;99.90;;;;;;5115624;28;20204;-74
2023/12/19 02:58:15;;;;;;;9.30;7.87;;;2.50;99.90;;;;;;5115527;28;20218;-74
2023/12/19 03:00:40;;;;;;;9.77;7.67;;;2.50;99.90;;;;;;5115748;28;20235;-74
2023/12/19 03:03:06;;;;;;;9.83;7.93;;;2.50;99.90;;;;;;5115173;28;20193;-74
2023/12/19 03:05:32;;;;;;;6.73;6.00;;;2.60;99.90;;;;;;5115366;28;20635;-74
2023/12/19 03:07:58;;;;;;;8.73;7.87;;;2.70;99.90;;;;;;5114845;28;20397;-74
2023/12/19 03:10:24;;;;;;;7.80;6.90;;;2.70;99.90;;;;;;5114743;28;20290;-74
2023/12/19 03:12:49;;;;;;;7.70;6.37;;;2.60;99.90;;;;;;5115178;28;20214;-74
2023/12/19 03:15:15;;;;;;;12.40;8.17;;;2.60;99.90;;;;;;5115308;28;20164;-74
2023/12/19 03:17:41;;;;;;;7.70;6.90;;;2.60;99.90;;;;;;5115205;28;20172;-74
2023/12/19 03:20:08;;;;;;;7.77;6.97;;;2.50;99.90;;;;;;5115132;28;20165;-74
2023/12/19 03:22:33;;;;;;;7.20;6.50;;;2.50;99.90;;;;;;5096883;28;20192;-73
2023/12/19 03:24:59;;;;;;;7.70;6.43;;;2.50;99.90;;;;;;5114974;28;20394;-74
2023/12/19 03:27:24;;;;;;;6.30;5.47;;;2.50;99.90;;;;;;5115192;28;20194;-74
2023/12/19 03:29:51;;;;;;;5.97;5.40;;;2.50;99.90;;;;;;5104034;28;20642;-75
2023/12/19 03:32:16;;;;;;;6.20;5.60;;;2.50;99.90;;;;;;5114761;28;20188;-74
2023/12/19 03:34:42;;;;;;;7.20;6.13;;;2.50;99.90;;;;;;5115053;28;20482;-73
2023/12/19 03:37:08;;;;;;;7.60;6.43;;;2.40;99.90;;;;;;5114796;28;20184;-74
2023/12/19 03:39:33;;;;;;;6.37;5.70;;;2.50;99.90;;;;;;5114746;28;20726;-74
2023/12/19 03:41:59;;;;;;;11.00;5.83;;;2.50;99.90;;;;;;5114479;28;20199;-74
2023/12/19 03:44:25;;;;;;;6.00;5.40;;;2.50;99.90;;;;;;5114532;28;20248;-74
2023/12/19 03:46:50;;;;;;;5.83;4.67;;;2.50;99.90;;;;;;5114319;28;20169;-74
2023/12/19 03:49:16;;;;;;;5.67;5.17;;;2.50;99.90;;;;;;5114528;28;20168;-74
2023/12/19 03:51:41;;;;;;;6.37;4.87;;;2.40;99.90;;;;;;5096276;28;20639;-74
2023/12/19 03:54:07;;;;;;;5.40;4.90;;;2.40;99.90;;;;;;5114304;28;20192;-74
2023/12/19 03:56:33;;;;;;;5.77;5.27;;;2.50;99.90;;;;;;5114683;28;20639;-75
2023/12/19 03:58:59;;;;;;;7.30;6.10;;;2.50;99.90;;;;;;5114416;28;20408;-74
2023/12/19 04:01:25;;;;;;;6.87;6.20;;;2.60;99.90;;;;;;5112990;28;20173;-75
2023/12/19 04:03:51;;;;;;;6.00;5.40;;;2.50;99.90;;;;;;5114406;28;20475;-74
2023/12/19 04:06:17;;;;;;;5.93;5.43;;;2.40;99.90;;;;;;5114287;28;20406;-74
2023/12/19 04:08:42;;;;;;;6.60;6.00;;;2.40;99.90;;;;;;5114251;28;20165;-74
2023/12/19 04:11:08;;;;;;;6.50;5.47;;;2.30;99.90;;;;;;5095934;28;20256;-75
2023/12/19 04:13:34;;;;;;;5.40;4.90;;;2.30;99.90;;;;;;5114359;28;20644;-75
2023/12/19 04:15:59;;;;;;;6.70;5.60;;;2.30;99.90;;;;;;5113570;28;20175;-74
2023/12/19 04:18:25;;;;;;;8.73;6.17;;;2.20;99.90;;;;;;5114050;28;20160;-75
2023/12/19 04:20:50;;;;;;;9.33;5.40;;;2.30;99.90;;;;;;5095547;28;20259;-74
2023/12/19 04:23:16;;;;;;;6.13;5.53;;;2.30;99.90;;;;;;5113659;28;20750;-75
2023/12/19 04:25:42;;;;;;;6.10;5.50;;;2.40;99.90;;;;;;5113888;28;20670;-74
2023/12/19 04:28:08;;;;;;;8.20;5.90;;;2.50;99.90;;;;;;5114585;28;20161;-74
2023/12/19 04:30:33;;;;;;;6.90;6.20;;;2.50;99.90;;;;;;5114171;28;20639;-74
2023/12/19 04:32:59;;;;;;;5.70;5.20;;;2.40;99.90;;;;;;5113970;28;20731;-74
2023/12/19 04:35:25;;;;;;;6.47;5.43;;;2.50;99.90;;;;;;5113847;28;20436;-75
2023/12/19 04:37:51;;;;;;;6.13;5.40;;;2.50;99.90;;;;;;5114034;28;20169;-74
2023/12/19 04:40:17;;;;;;;5.73;5.20;;;2.60;99.90;;;;;;5113770;28;20409;-74
2023/12/19 04:42:43;;;;;;;7.60;5.70;;;2.70;99.90;;;;;;5113891;28;20691;-74
2023/12/19 04:45:09;;;;;;;7.60;6.50;;;2.70;99.90;;;;;;5113627;28;20428;-74
2023/12/19 04:47:35;;;;;;;7.43;6.00;;;2.60;99.90;;;;;;5113968;28;20164;-73
2023/12/19 04:50:00;;;;;;;6.33;5.67;;;2.50;99.90;;;;;;5113656;28;20799;-74
2023/12/19 04:52:26;;;;;;;5.60;5.00;;;2.50;99.90;;;;;;5113550;28;20188;-74
2023/12/19 04:54:52;;;;;;;6.93;4.80;;;2.50;99.90;;;;;;5096121;28;20169;-74
2023/12/19 04:57:17;;;;;;;6.17;5.57;;;2.20;99.90;;;;;;5113769;28;20247;-74
2023/12/19 04:59:43;;;;;;;5.87;5.27;;;2.20;99.90;;;;;;5113556;28;20164;-74
2023/12/19 05:02:09;;;;;;;6.07;5.10;;;2.30;99.90;;;;;;5113487;28;20181;-75
2023/12/19 05:04:34;;;;;;;5.40;4.90;;;2.20;99.90;;;;;;5110717;28;20188;-74
2023/12/19 05:07:00;;;;;;;5.37;4.87;;;2.20;99.90;;;;;;5113691;28;20168;-74
2023/12/19 05:09:25;;;;;;;4.83;4.43;;;2.20;99.90;;;;;;5114043;28;20165;-74
2023/12/19 05:11:51;;;;;;;6.93;5.10;;;2.20;99.90;;;;;;5113355;28;20206;-74
2023/12/19 05:14:17;;;;;;;5.00;4.60;;;2.20;99.90;;;;;;5113293;28;20187;-74
2023/12/19 05:16:43;;;;;;;6.57;4.47;;;2.20;99.90;;;;;;5113555;28;20506;-74
2023/12/19 05:19:09;;;;;;;6.17;4.53;;;2.10;99.90;;;;;;5113343;28;20165;-74
2023/12/19 05:21:38;;;;;;;7.50;6.80;;;2.10;99.90;;;;;;5113373;28;20169;-74
2023/12/19 05:24:05;;;;;;;9.80;6.00;;;2.20;99.90;;;;;;5106308;28;20450;-74
2023/12/19 05:26:30;;;;;;;7.63;4.83;;;2.30;99.90;;;;;;5113695;28;20394;-74
2023/12/19 05:28:56;;;;;;;6.47;5.83;;;2.40;99.90;;;;;;5113724;28;20417;-75
2023/12/19 05:31:22;;;;;;;7.57;5.60;;;2.40;99.90;;;;;;5113335;28;20251;-75
2023/12/19 05:33:48;;;;;;;5.90;5.40;;;2.30;99.90;;;;;;5107616;28;20271;-74
2023/12/19 05:36:14;;;;;;;8.57;5.90;;;2.30;99.90;;;;;;5117309;28;20514;-75
2023/12/19 05:38:40;;;;;;;7.90;6.50;;;2.40;99.90;;;;;;5118323;28;20177;-74
2023/12/19 05:41:06;;;;;;;10.83;9.60;;;2.40;99.90;;;;;;5117320;28;20404;-74
2023/12/19 05:43:31;;;;;;;7.50;6.33;;;2.30;99.90;;;;;;5116857;28;20261;-74
2023/12/19 05:45:59;;;;;;;7.83;6.20;;;2.30;99.90;;;;;;5098560;28;20552;-74
2023/12/19 05:48:25;;;;;;;7.73;7.03;;;2.20;99.90;;;;;;5116616;28;20164;-74
2023/12/19 05:50:52;;;;;;;7.53;6.27;;;2.10;99.90;;;;;;5117449;28;20394;-74
2023/12/19 05:53:17;;;;;;;9.23;7.40;;;2.10;99.90;;;;;;5116852;28;20947;-74
2023/12/19 05:55:44;;;;;;;6.03;5.10;;;2.20;99.90;;;;;;5116852;28;20403;-74
2023/12/19 05:58:10;;;;;;;12.00;10.00;;;2.30;99.90;;;;;;5116799;28;20187;-73
2023/12/19 06:00:36;;;;;;;9.37;8.47;;;2.20;99.90;;;;;;5117042;28;20961;-73
2023/12/19 06:03:02;;;;;;;7.40;6.70;;;2.20;99.90;;;;;;5116501;28;20208;-74
2023/12/19 06:05:27;;;;;;;8.43;7.00;;;2.30;99.90;;;;;;5116932;28;20405;-74
2023/12/19 06:07:53;;;;;;;7.77;7.07;;;2.20;99.90;;;;;;5116643;28;20232;-74
2023/12/19 06:10:18;;;;;;;7.10;6.40;;;2.10;99.90;;;;;;5116752;28;20213;-74
2023/12/19 06:12:44;;;;;;;9.23;8.10;;;2.00;99.90;;;;;;5115628;28;20218;-74
2023/12/19 06:15:13;;;;;;;8.90;7.73;;;2.10;99.90;;;;;;5116372;28;20707;-73
2023/12/19 06:17:46;;;;;;;7.87;7.13;;;2.10;99.90;;;;;;5115856;28;20225;-73
2023/12/19 06:20:12;;;;;;;7.47;6.07;;;2.00;99.90;;;;;;5115743;28;20939;-73
2023/12/19 06:22:38;;;;;;;9.70;8.10;;;2.00;99.90;;;;;;5115996;28;20511;-72
2023/12/19 06:25:05;;;;;;;12.60;9.23;;;2.10;99.90;;;;;;5116006;28;20478;-73
2023/12/19 06:27:32;;;;;;;9.60;8.20;;;2.20;99.90;;;;;;5116217;28;20927;-71
2023/12/19 06:29:58;;;;;;;11.20;9.67;;;2.30;99.90;;;;;;5116113;28;20967;-71
2023/12/19 06:32:24;;;;;;;15.73;10.10;;;2.30;99.90;;;;;;5116068;28;20425;-71
2023/12/19 06:34:50;;;;;;;10.23;9.27;;;2.30;99.90;;;;;;5098125;28;20407;-70
2023/12/19 06:37:15;;;;;;;12.23;10.97;;;2.30;99.90;;;;;;5115893;28;20172;-70
2023/12/19 06:39:42;;;;;;;10.90;9.90;;;2.20;99.90;;;;;;5116164;28;20161;-70
2023/12/19 06:42:08;;;;;;;10.53;9.40;;;2.00;99.90;;;;;;5115719;28;20197;-71
2023/12/19 06:44:33;;;;;;;10.30;9.30;;;2.00;99.90;;;;;;5116019;28;20442;-70
2023/12/19 06:46:59;;;;;;;13.50;12.10;;;2.00;99.90;;;;;;5115552;28;20764;-71
2023/12/19 06:49:24;;;;;;;12.67;11.37;;;2.00;99.90;;;;;;5115750;28;20213;-71
2023/12/19 06:51:51;;;;;;;12.90;10.70;;;1.90;99.90;;;;;;5115685;28;20161;-70
2023/12/19 06:54:16;;;;;;;10.90;9.80;;;1.80;99.90;;;;;;5115903;28;20516;-70
2023/12/19 06:56:42;;;;;;;9.90;8.57;;;1.90;99.90;;;;;;5115541;28;20399;-70
2023/12/19 06:59:08;;;;;;;9.97;8.90;;;1.90;99.90;;;;;;5115396;28;20222;-70
2023/12/19 07:01:35;;;;;;;11.63;10.13;;;1.90;99.90;;;;;;5115631;28;20217;-70
2023/12/19 07:04:01;;;;;;;12.17;10.20;;;1.80;99.90;;;;;;5115416;28;20454;-69
2023/12/19 07:06:26;;;;;;;11.50;9.73;;;1.70;99.90;;;;;;5115243;28;20745;-70
2023/12/19 07:08:52;;;;;;;15.20;11.37;;;1.70;99.90;;;;;;5115268;28;20402;-70
2023/12/19 07:11:20;;;;;;;10.47;9.37;;;1.70;99.90;;;;;;5115657;28;20172;-70
2023/12/19 07:13:46;;;;;;;10.97;9.33;;;1.60;99.90;;;;;;5115334;28;20793;-70
2023/12/19 07:16:17;;;;;;;12.47;9.90;;;1.70;99.90;;;;;;5115522;28;20494;-69
2023/12/19 07:18:43;;;;;;;11.70;10.40;;;1.70;99.90;;;;;;5115405;28;20206;-69
2023/12/19 07:21:31;;;;;;;10.60;9.50;;;1.70;99.90;;;;;;5115553;28;20403;-70
2023/12/19 07:23:58;;;;;;;11.60;10.40;;;1.90;99.90;;;;;;5115048;28;20454;-70
2023/12/19 07:26:28;;;;;;;12.53;11.30;;;1.90;99.90;;;;;;5115085;28;20811;-70
2023/12/19 07:28:57;;;;;;;16.50;14.23;;;1.90;99.90;;;;;;5114930;28;20402;-70
2023/12/19 07:31:24;;;;;;;17.17;12.10;;;1.90;99.90;;;;;;5115157;28;20405;-70
2023/12/19 07:33:56;;;;;;;13.43;12.03;;;2.00;99.90;;;;;;5113632;28;20423;-70
2023/12/19 07:36:23;;;;;;;11.47;10.00;;;2.00;99.90;;;;;;5114751;28;20391;-71
2023/12/19 07:38:49;;;;;;;17.00;13.40;;;2.00;99.90;;;;;;5114642;28;20402;-70
2023/12/19 07:41:15;;;;;;;14.97;13.20;;;2.00;99.90;;;;;;5114705;28;20493;-70
2023/12/19 07:43:41;;;;;;;13.33;11.50;;;1.90;99.90;;;;;;5114687;28;20458;-70
2023/12/19 07:46:07;;;;;;;12.00;10.77;;;1.90;99.90;;;;;;5096322;28;20451;-70
2023/12/19 07:48:33;;;;;;;12.30;11.10;;;2.00;99.90;;;;;;5114823;28;20241;-71
2023/12/19 07:50:59;;;;;;;14.20;12.33;;;2.10;99.90;;;;;;5114645;28;20246;-70
2023/12/19 07:53:28;;;;;;;13.87;12.17;;;2.10;99.90;;;;;;5114695;28;20452;-71
2023/12/19 07:55:54;;;;;;;16.90;13.70;;;2.00;99.90;;;;;;5114196;28;20168;-70
2023/12/19 07:58:19;;;;;;;13.27;11.87;;;2.00;99.90;;;;;;5114459;28;20773;-71
2023/12/19 08:00:47;;;;;;;15.33;12.80;;;2.20;99.90;;;;;;5114320;28;20410;-71
2023/12/19 08:03:15;;;;;;;15.03;12.43;;;2.20;99.90;;;;;;5114203;28;20566;-71
2023/12/19 08:05:50;;;;;;;15.23;11.50;;;2.30;99.90;;;;;;5114256;28;20539;-71
2023/12/19 08:08:19;;;;;;;15.00;12.27;;;2.20;99.90;;;;;;5114052;28;20488;-71
2023/12/19 08:10:45;;;;;;;15.30;13.70;;;2.30;99.90;;;;;;5113897;28;20448;-71
2023/12/19 08:13:12;;;;;;;16.87;13.70;;;2.40;99.90;;;;;;5114097;28;20425;-71
2023/12/19 08:15:39;;;;;;;14.17;12.43;;;2.50;99.90;;;;;;5114249;28;20984;-70
2023/12/19 08:18:04;;;;;;;14.27;12.87;;;2.50;99.90;;;;;;5113459;28;20801;-71
2023/12/19 08:20:30;;;;;;;18.30;15.93;;;2.40;99.90;;;;;;5114132;28;20460;-70
2023/12/19 08:22:56;;;;;;;19.40;17.33;;;2.20;99.90;;;;;;5114352;28;20200;-71
2023/12/19 08:25:21;;;;;;;19.97;15.57;;;2.20;99.90;;;;;;5114278;28;20165;-71
2023/12/19 08:27:47;;;;;;;17.80;14.80;;;2.20;99.90;;;;;;5091950;28;20751;-71
2023/12/19 08:30:13;;;;;;;21.33;16.33;;;2.20;99.90;;;;;;5093680;28;20636;-70
2023/12/19 08:32:39;;;;;;;16.70;14.90;;;2.30;99.90;;;;;;5093524;28;20550;-70
2023/12/19 08:35:06;;;;;;;17.63;15.73;;;2.30;99.90;;;;;;5093435;28;20414;-71
2023/12/19 08:37:32;;;;;;;16.07;14.17;;;2.40;99.90;;;;;;5102014;28;20406;-71
2023/12/19 08:40:03;;;;;;;19.33;15.70;;;2.40;99.90;;;;;;5114283;28;20551;-71
2023/12/19 08:42:29;;;;;;;16.90;15.13;;;2.50;99.90;;;;;;5113581;28;20438;-71
2023/12/19 08:44:55;;;;;;;20.33;16.10;;;2.60;99.90;;;;;;5113883;28;20451;-71
2023/12/19 08:47:27;;;;;;;17.67;15.77;;;2.60;99.90;;;;;;5113755;28;20472;-71
2023/12/19 08:49:53;;;;;;;16.20;14.23;;;2.50;99.90;;;;;;5113632;28;20406;-71
2023/12/19 08:52:22;;;;;;;16.67;14.87;;;2.70;99.90;;;;;;5113420;28;20450;-71
2023/12/19 08:54:48;;;;;;;18.10;15.53;;;2.80;99.90;;;;;;5113594;28;20196;-71
2023/12/19 08:57:15;;;;;;;18.20;15.70;;;2.80;99.90;;;;;;5113564;28;20415;-71
2023/12/19 08:59:40;;;;;;;18.37;16.47;;;2.80;99.90;;;;;;5113765;28;20449;-71
2023/12/19 09:02:06;;;;;;;18.27;15.30;;;2.90;99.90;;;;;;5113640;28;20458;-71
2023/12/19 09:04:32;;;;;;;16.80;13.80;;;2.70;99.90;;;;;;5113359;28;20192;-71
2023/12/19 09:06:59;;;;;;;19.17;16.43;;;2.80;99.90;;;;;;5114958;28;20820;-71
2023/12/19 09:09:25;;;;;;;19.03;16.37;;;2.70;99.90;;;;;;5117492;28;20173;-71
2023/12/19 09:11:50;;;;;;;16.60;14.90;;;2.80;99.90;;;;;;5117430;28;20394;-71
2023/12/19 09:14:17;;;;;;;19.60;16.30;;;2.80;99.90;;;;;;5117760;28;20498;-71
2023/12/19 09:16:43;;;;;;;17.80;15.90;;;2.90;99.90;;;;;;5117417;28;20165;-71
2023/12/19 09:19:09;;;;;;;24.10;17.00;;;2.90;99.90;;;;;;5117782;28;20917;-71
2023/12/19 09:21:35;;;;;;;18.03;16.00;;;2.90;99.90;;;;;;5117285;28;20407;-71
2023/12/19 09:24:00;;;;;;;18.73;16.70;;;3.10;99.90;;;;;;5117292;28;20184;-71
2023/12/19 09:26:27;;;;;;;19.23;16.97;;;3.10;99.90;;;;;;5117776;28;20157;-71
2023/12/19 09:28:55;;;;;;;18.50;15.40;;;3.30;99.90;;;;;;5117365;28;20188;-71
2023/12/19 09:31:21;;;;;;;17.50;15.70;;;3.60;99.90;;;;;;5117516;28;20785;-70
2023/12/19 09:33:46;;;;;;;16.10;14.40;;;3.80;99.90;;;;;;5117379;28;20422;-71
2023/12/19 09:36:21;;;;;;;17.57;15.60;;;4.00;99.90;;;;;;5117346;28;20168;-71
2023/12/19 09:38:47;;;;;;;15.30;13.73;;;4.00;99.90;;;;;;5117027;28;20239;-71
2023/12/19 09:41:13;;;;;;;15.10;13.50;;;3.90;99.90;;;;;;5116843;28;20491;-71
2023/12/19 09:43:41;;;;;;;15.17;13.57;;;4.00;99.90;;;;;;5116843;28;20196;-71
2023/12/19 09:46:07;;;;;;;18.47;16.20;;;4.10;99.90;;;;;;5117222;28;20398;-71
2023/12/19 09:48:34;;;;;;;16.53;14.83;;;4.30;99.90;;;;;;5117221;28;20410;-70
2023/12/19 09:51:03;;;;;;;15.53;13.80;;;4.00;99.90;;;;;;5117305;28;20420;-71
2023/12/19 09:53:33;;;;;;;17.10;14.53;;;3.70;99.90;;;;;;5116619;28;20542;-71
2023/12/19 09:56:32;;;;;;;20.10;15.83;;;3.40;99.90;;;;;;5116765;28;20470;-71
2023/12/19 09:59:00;;;;;;;17.50;15.40;;;3.60;99.90;;;;;;5116730;28;20398;-70
2023/12/19 10:01:26;;;;;;;17.40;15.53;;;3.50;99.90;;;;;;5116749;28;20399;-70
2023/12/19 10:03:55;;;;;;;18.60;16.73;;;3.60;99.90;;;;;;5115485;28;20849;-71
2023/12/19 10:06:22;;;;;;;15.37;13.77;;;3.60;99.90;;;;;;5119295;27;20172;-71
2023/12/19 10:08:50;;;;;;;18.00;16.13;;;3.50;99.90;;;;;;5116497;28;20403;-72
2023/12/19 10:11:21;;;;;;;20.40;17.03;;;3.60;99.90;;;;;;5116643;28;20803;-73
2023/12/19 10:13:47;;;;;;;16.43;14.73;;;3.80;99.90;;;;;;5116303;28;20946;-74
2023/12/19 10:16:20;;;;;;;16.87;15.07;;;4.10;99.90;;;;;;5102555;28;20425;-73
2023/12/19 10:18:59;;;;;;;16.77;14.77;;;4.20;99.90;;;;;;5098649;28;20411;-75
2023/12/19 10:21:28;;;;;;;17.70;15.17;;;4.30;99.90;;;;;;5096403;28;20394;-75
2023/12/19 10:24:09;;;;;;;17.37;15.47;;;4.30;99.90;;;;;;5095709;28;20538;-75
2023/12/19 10:26:35;;;;;;;20.43;16.60;;;4.40;99.90;;;;;;5096088;28;20372;-74
2023/12/19 10:29:00;;;;;;;17.70;15.30;;;4.30;99.90;;;;;;5115076;28;20889;-71
2023/12/19 10:31:26;;;;;;;18.23;16.00;;;4.30;99.90;;;;;;5116086;28;20161;-70
2023/12/19 10:33:56;;;;;;;16.50;14.80;;;4.40;99.90;;;;;;5116329;28;20181;-70
2023/12/19 10:36:32;;;;;;;19.30;17.20;;;4.00;99.90;;;;;;5115896;28;20169;-71
2023/12/19 10:39:07;;;;;;;17.27;15.47;;;3.80;99.90;;;;;;5125311;27;20398;-76
2023/12/19 10:41:35;;;;;;;16.53;14.93;;;3.60;99.90;;;;;;5136884;27;20440;-73
2023/12/19 10:44:01;;;;;;;20.43;16.90;;;3.70;99.90;;;;;;5136288;27;20819;-75
2023/12/19 10:46:30;;;;;;;22.57;17.33;;;3.90;99.90;;;;;;5136420;27;20480;-75
2023/12/19 10:49:04;;;;;;;20.47;17.67;;;3.80;99.90;;;;;;5117768;27;20409;-74
2023/12/19 10:51:34;;;;;;;22.80;15.93;;;3.90;99.90;;;;;;5121045;27;20410;-70
2023/12/19 10:54:14;;;;;;;18.53;15.67;;;3.70;99.90;;;;;;5107918;27;20425;-73
2023/12/19 10:57:11;;;;;;;17.77;14.27;;;3.70;99.90;;;;;;5125290;27;20387;-73
2023/12/19 11:00:09;;;;;;;21.37;14.87;;;3.50;99.90;;;;;;5105768;27;20409;-70
2023/12/19 11:02:40;;;;;;;17.57;14.53;;;3.40;99.90;;;;;;5123319;27;20936;-70
2023/12/19 11:05:25;;;;;;;21.63;17.77;;;3.40;99.90;;;;;;5133268;27;20394;-72
2023/12/19 11:07:55;;;;;;;19.53;15.07;;;3.50;99.90;;;;;;5126961;27;20748;-71
2023/12/19 11:10:22;;;;;;;18.40;15.23;;;3.40;99.90;;;;;;5115905;28;20780;-78
2023/12/19 11:12:50;;;;;;;19.80;15.97;;;3.60;99.90;;;;;;5117159;28;20509;-76
2023/12/19 11:15:16;;;;;;;17.40;14.73;;;3.80;99.90;;;;;;5116160;28;20513;-74
2023/12/19 11:17:42;;;;;;;18.60;15.73;;;4.10;99.90;;;;;;5114940;28;20893;-72
2023/12/19 11:20:19;;;;;;;18.80;15.23;;;4.20;99.90;;;;;;5120272;27;20477;-70
2023/12/19 11:23:14;;;;;;;18.70;15.93;;;4.50;99.90;;;;;;5125589;27;20187;-78
2023/12/19 11:25:47;;;;;;;23.07;16.13;;;5.00;99.90;;;;;;5125699;27;20908;-73
2023/12/19 11:28:14;;;;;;;17.77;14.47;;;5.80;99.90;;;;;;5124891;27;20426;-73
2023/12/19 11:30:40;;;;;;;19.17;16.20;;;7.20;99.90;;;;;;5112974;27;20493;-71
2023/12/19 11:33:14;;;;;;;18.97;16.00;;;7.20;99.90;;;;;;5117006;27;20479;-72
2023/12/19 11:35:41;;;;;;;15.30;13.77;;;6.90;99.90;;;;;;5115007;28;20420;-72
2023/12/19 11:38:21;;;;;;;16.13;13.93;;;6.90;99.90;;;;;;5114823;28;20413;-72
2023/12/19 11:40:48;;;;;;;15.33;13.80;;;7.40;99.90;;;;;;5115010;28;20477;-74
2023/12/19 11:43:30;;;;;;;14.37;12.77;;;7.80;99.90;;;;;;5114553;28;20472;-76
2023/12/19 11:45:56;;;;;;;17.37;13.43;;;7.30;99.90;;;;;;5115124;28;20408;-76
2023/12/19 11:48:36;;;;;;;16.70;14.40;;;6.50;99.90;;;;;;5114755;28;20405;-72
2023/12/19 11:51:01;;;;;;;18.40;15.03;;;6.40;99.90;;;;;;5114482;28;20487;-73
2023/12/19 11:53:27;;;;;;;16.87;14.27;;;6.10;99.90;;;;;;5114425;28;20520;-73
2023/12/19 11:56:10;;;;;;;15.20;13.60;;;6.60;99.90;;;;;;5114891;28;20506;-74
2023/12/19 11:58:46;;;;;;;16.00;14.30;;;7.50;99.90;;;;;;5114448;28;20182;-72
2023/12/19 12:01:12;;;;;;;14.93;13.33;;;7.70;99.90;;;;;;5114359;28;20934;-73
2023/12/19 12:03:38;;;;;;;17.37;15.20;;;7.40;99.90;;;;;;5114194;28;20492;-74
2023/12/19 12:06:04;;;;;;;17.13;15.43;;;7.70;99.90;;;;;;5098913;28;20195;-75
2023/12/19 12:08:30;;;;;;;15.07;13.53;;;8.20;99.90;;;;;;5114286;28;20172;-71
2023/12/19 12:11:04;;;;;;;15.83;14.17;;;8.90;99.90;;;;;;5114205;28;20408;-71
2023/12/19 12:13:33;;;;;;;16.70;14.90;;;8.70;99.90;;;;;;5113659;28;20447;-70
2023/12/19 12:16:00;;;;;;;16.20;14.60;;;7.40;99.90;;;;;;5095661;28;20410;-72
2023/12/19 12:18:27;;;;;;;16.43;14.77;;;7.40;99.90;;;;;;5114152;28;20406;-71
2023/12/19 12:21:13;;;;;;;15.83;14.03;;;8.40;99.90;;;;;;5114468;28;20406;-72
2023/12/19 12:23:39;;;;;;;15.20;13.10;;;8.30;99.90;;;;;;5113434;28;20461;-72
2023/12/19 12:26:08;;;;;;;15.57;13.97;;;7.80;99.90;;;;;;5113812;28;20450;-73
2023/12/19 12:28:35;;;;;;;15.93;14.30;;;7.40;99.90;;;;;;5113790;28;20186;-73
2023/12/19 12:31:01;;;;;;;16.33;14.50;;;7.10;99.90;;;;;;5114091;28;20418;-72
2023/12/19 12:33:28;;;;;;;18.20;15.17;;;6.80;99.90;;;;;;5113825;28;20429;-72
2023/12/19 12:35:57;;;;;;;17.30;15.13;;;6.80;99.90;;;;;;5113938;28;20780;-72
2023/12/19 12:38:24;;;;;;;21.67;15.73;;;6.60;99.90;;;;;;5114083;28;20420;-72
2023/12/19 12:41:02;;;;;;;18.57;15.60;;;6.30;99.90;;;;;;5113719;28;20415;-72
2023/12/19 12:44:12;;;;;;;20.03;17.00;;;6.10;99.90;;;;;;5113810;28;20875;-72
2023/12/19 12:46:30;;;;;;;17.47;15.50;;;6.10;99.90;;;;;;5110362;28;20403;-72